Kasagimaru — JJ3905 — position and weather

sailwx.info

Track history (hours):
 
Tides and Currents Weather Stations Pressure Air Temp Water Temp Dewpoint Dewpoint Depression Visibility Wind Speed Wind Dir Waves Ship Positions

Kasagimaru

Last reported at 2018-Jul-23 11:28 UTC. Time now 2018-Jul-23 11:50 UTC.
Position N 34°13' E 135°09'.

Length 42 m; draft 3.5 m.

Type: Tug. MMSI: 431300268.

Date/timePositionNaut miles runAvg speedWind from/ knotsBaromVisibWave heightAir tempDewpointWater temp
2018-Jul-23 11:28N 34°13' E 135°09'0 0.0
2018-Jul-23 10:58N 34°13' E 135°09'0 0.0
2018-Jul-23 10:22N 34°13' E 135°09'0 0.0
2018-Jul-23 09:58N 34°13' E 135°09'0 0.0
2018-Jul-23 09:28N 34°13' E 135°09'0 0.0
2018-Jul-23 08:58N 34°13' E 135°09'0 0.0
2018-Jul-23 08:28N 34°13' E 135°09'0 0.0
2018-Jul-23 07:46N 34°13' E 135°09'0 0.0
2018-Jul-23 07:25N 34°13' E 135°09'0 0.0
2018-Jul-23 06:58N 34°13' E 135°09'0 0.8
2018-Jul-23 06:31N 34°13' E 135°09'510.4
2018-Jul-23 06:00N 34°16' E 135°03'510.5
2018-Jul-23 05:30N 34°20' E 135°06'611.9
2018-Jul-23 05:00N 34°24' E 135°12'911.9
2018-Jul-23 04:16N 34°29' E 135°20'412.4
2018-Jul-23 03:59N 34°32' E 135°23'2 1.1
2018-Jul-23 02:29N 34°33' E 135°24'4 3.9
2018-Jul-23 01:33N 34°33' E 135°20'0 1.7
2018-Jul-23 01:26N 34°33' E 135°20'1 2.6
2018-Jul-23 01:00N 34°34' E 135°21'5 2.6
2018-Jul-22 23:00N 34°35' E 135°27'1 1.9
2018-Jul-22 22:30N 34°35' E 135°26'3 5.9
2018-Jul-22 22:01N 34°36' E 135°22'1 2.1
2018-Jul-22 21:28N 34°35' E 135°23'5 0.9
2018-Jul-22 16:17N 34°31' E 135°24'0 0.0
2018-Jul-22 13:38N 34°31' E 135°24'0 0.0
2018-Jul-22 10:41N 34°31' E 135°24'0 0.0
2018-Jul-22 10:27N 34°31' E 135°24'0 0.1
2018-Jul-22 10:00N 34°31' E 135°24'3 6.2
2018-Jul-22 09:30N 34°33' E 135°26'0 0.0
2018-Jul-22 09:00N 34°33' E 135°26'0 0.1
2018-Jul-22 08:30N 34°33' E 135°26'0 0.2
2018-Jul-22 08:00N 34°33' E 135°26'1 2.8
2018-Jul-22 07:30N 34°33' E 135°24'3 6.4
2018-Jul-22 07:00N 34°33' E 135°20'0 0.5
2018-Jul-22 06:30N 34°34' E 135°21'5 9.2
2018-Jul-22 06:00N 34°33' E 135°26'0 1.0
2018-Jul-22 05:30N 34°33' E 135°27'0 0.0
2018-Jul-22 05:00N 34°33' E 135°27'0 0.0
2018-Jul-22 04:28N 34°33' E 135°27'0 0.0
2018-Jul-22 03:57N 34°33' E 135°27'0 0.0
2018-Jul-22 03:30N 34°33' E 135°27'0 0.0
2018-Jul-22 02:58N 34°33' E 135°27'2 4.0
2018-Jul-22 02:30N 34°33' E 135°24'0 0.4
2018-Jul-22 01:35N 34°34' E 135°24'0 0.8
2018-Jul-22 01:28N 34°34' E 135°24'2 0.3
2018-Jul-21 18:07N 34°33' E 135°27'0 0.0
2018-Jul-21 17:43N 34°33' E 135°27'0 0.0
2018-Jul-21 17:19N 34°33' E 135°27'0 0.0
2018-Jul-21 14:37N 34°33' E 135°27'0 0.0
2018-Jul-21 11:26N 34°33' E 135°27'3 7.7
2018-Jul-21 11:00N 34°35' E 135°24'2 4.3
2018-Jul-21 10:30N 34°37' E 135°26'2 3.9
2018-Jul-21 10:00N 34°38' E 135°24'1 1.3
2018-Jul-21 09:30N 34°38' E 135°24'0 0.5
2018-Jul-21 09:00N 34°38' E 135°25'0 0.6
2018-Jul-21 08:30N 34°38' E 135°24'2 3.9
2018-Jul-21 08:00N 34°38' E 135°27'0 0.5
2018-Jul-21 07:30N 34°38' E 135°27'0 0.0
2018-Jul-21 06:59N 34°38' E 135°27'0 0.0
2018-Jul-21 06:30N 34°38' E 135°27'0 0.0
2018-Jul-21 05:59N 34°38' E 135°27'0 0.0
2018-Jul-21 05:28N 34°38' E 135°27'0 0.0
2018-Jul-21 05:00N 34°38' E 135°27'0 0.0
2018-Jul-21 04:30N 34°38' E 135°27'5 9.3
2018-Jul-21 04:00N 34°37' E 135°21'612.3
2018-Jul-21 03:30N 34°35' E 135°14'612.2
2018-Jul-21 03:00N 34°34' E 135°07'812.5
2018-Jul-21 02:24N 34°37' E 134°59'3 8.1
2018-Jul-21 02:00N 34°35' E 134°55'3 5.5
2018-Jul-21 01:30N 34°37' E 134°53'5 0.3
2018-Jul-20 06:15N 34°40' E 134°48'613.3
2018-Jul-20 05:48N 34°37' E 134°54'514.1
2018-Jul-20 05:28N 34°38' E 134°60'613.0
2018-Jul-20 05:00N 34°34' E 135°05'713.4
2018-Jul-20 04:30N 34°27' E 135°03'713.6
2018-Jul-20 04:01N 34°21' E 135°01'612.5
2018-Jul-20 03:30N 34°15' E 134°58'713.9
2018-Jul-20 03:00N 34°22' E 135°00'815.4
2018-Jul-20 02:30N 34°27' E 135°08'714.1
2018-Jul-20 01:59N 34°31' E 135°15'612.2
2018-Jul-20 01:30N 34°33' E 135°22'2 3.9
2018-Jul-20 00:58N 34°34' E 135°24'0 0.1
2018-Jul-20 00:16N 34°34' E 135°24'2 0.8
2018-Jul-19 21:35N 34°33' E 135°27'0 0.0
2018-Jul-19 21:23N 34°33' E 135°27'0 0.0
2018-Jul-19 07:53N 34°33' E 135°27'0 0.0
2018-Jul-19 02:02N 34°33' E 135°27'0 1.6
2018-Jul-19 02:00N 34°33' E 135°27'511.0
2018-Jul-19 01:30N 34°34' E 135°20'612.5
2018-Jul-19 01:00N 34°34' E 135°12'613.1
2018-Jul-19 00:30N 34°35' E 135°04'713.1
2018-Jul-19 00:00N 34°37' E 134°57'713.2
2018-Jul-18 23:30N 34°40' E 134°49'7 1.7
2018-Jul-18 19:43N 34°40' E 134°42'513.7
2018-Jul-18 19:23N 34°36' E 134°42'410.4
2018-Jul-18 19:00N 34°34' E 134°47'1013.9
2018-Jul-18 18:18N 34°37' E 134°58'311.1
2018-Jul-18 18:00N 34°37' E 135°02'4 8.2
2018-Jul-18 17:30N 34°35' E 135°06'3 6.8
2018-Jul-18 17:00N 34°33' E 135°09'4 8.3
2018-Jul-18 16:29N 34°29' E 135°06'612.8
2018-Jul-18 16:00N 34°23' E 135°03'612.7
2018-Jul-18 15:30N 34°18' E 134°59'611.9
2018-Jul-18 14:59N 34°12' E 135°00'2 4.5
2018-Jul-18 14:31N 34°12' E 135°03'6 5.3
2018-Jul-18 13:27N 34°13' E 135°09'0 0.0
2018-Jul-18 12:57N 34°13' E 135°09'0 0.0
2018-Jul-18 12:30N 34°13' E 135°09'0 0.0
2018-Jul-18 12:00N 34°13' E 135°09'0 0.0
2018-Jul-18 11:30N 34°13' E 135°09'0 0.0
2018-Jul-18 10:30N 34°13' E 135°09'0 0.0
2018-Jul-18 10:00N 34°13' E 135°09'0 0.0
2018-Jul-18 09:27N 34°13' E 135°09'0 0.0
2018-Jul-18 09:00N 34°13' E 135°09'0 0.0
2018-Jul-18 08:30N 34°13' E 135°09'0 0.0
2018-Jul-18 07:57N 34°13' E 135°09'0 0.0
2018-Jul-18 07:30N 34°13' E 135°09'0 0.0
2018-Jul-18 06:54N 34°13' E 135°09'0 0.0
2018-Jul-18 06:27N 34°13' E 135°09'0 0.0
2018-Jul-18 05:57N 34°13' E 135°09'0 0.0
2018-Jul-18 05:30N 34°13' E 135°09'0 0.0
2018-Jul-18 04:57N 34°13' E 135°09'0 0.0
2018-Jul-18 04:27N 34°13' E 135°09'0 0.0
2018-Jul-18 03:54N 34°13' E 135°09'0 0.0
2018-Jul-18 03:27N 34°13' E 135°09'0 0.0
2018-Jul-18 03:00N 34°13' E 135°09'0 0.0
2018-Jul-18 02:30N 34°13' E 135°09'0 0.0
2018-Jul-18 02:00N 34°13' E 135°09'0 0.0
2018-Jul-18 01:30N 34°13' E 135°09'0 0.0
2018-Jul-18 00:57N 34°13' E 135°09'0 0.0
2018-Jul-18 00:30N 34°13' E 135°09'0 0.0
2018-Jul-18 00:00N 34°13' E 135°09'0 0.0
2018-Jul-17 23:30N 34°13' E 135°09'0 0.0
2018-Jul-17 23:00N 34°13' E 135°09'0 0.0
2018-Jul-17 22:21N 34°13' E 135°09'0 0.0
2018-Jul-17 21:57N 34°13' E 135°09'0 0.0
2018-Jul-17 21:30N 34°13' E 135°09'0 0.0
2018-Jul-17 21:00N 34°13' E 135°09'0 0.0
2018-Jul-17 20:30N 34°13' E 135°09'0 0.0
2018-Jul-17 19:57N 34°13' E 135°09'0 0.0
2018-Jul-17 19:30N 34°13' E 135°09'0 0.0
2018-Jul-17 19:00N 34°13' E 135°09'0 0.0
2018-Jul-17 18:18N 34°13' E 135°09'0 0.0
2018-Jul-17 18:00N 34°13' E 135°09'0 0.0
2018-Jul-17 17:30N 34°13' E 135°09'0 0.0
2018-Jul-17 16:51N 34°13' E 135°09'0 0.0
2018-Jul-17 16:30N 34°13' E 135°09'0 0.0
2018-Jul-17 16:00N 34°13' E 135°09'0 0.0
2018-Jul-17 15:27N 34°13' E 135°09'0 0.0
2018-Jul-17 15:00N 34°13' E 135°09'0 0.0
2018-Jul-17 14:30N 34°13' E 135°09'0 0.0
2018-Jul-17 13:57N 34°13' E 135°09'0 0.0
2018-Jul-17 13:30N 34°13' E 135°09'0 0.0
2018-Jul-17 12:57N 34°13' E 135°09'0 0.0
2018-Jul-17 12:27N 34°13' E 135°09'0 0.0
2018-Jul-17 12:00N 34°13' E 135°09'0 0.0
2018-Jul-17 11:27N 34°13' E 135°09'0 0.0
2018-Jul-17 11:00N 34°13' E 135°09'0 0.0
2018-Jul-17 10:30N 34°13' E 135°09'0 0.0
2018-Jul-17 10:00N 34°13' E 135°09'0 0.0
2018-Jul-17 09:30N 34°13' E 135°09'0 0.0
2018-Jul-17 09:00N 34°13' E 135°09'0 0.0
2018-Jul-17 08:30N 34°13' E 135°09'0 0.0
2018-Jul-17 08:00N 34°13' E 135°09'0 0.0
2018-Jul-17 07:30N 34°13' E 135°09'0 0.0
2018-Jul-17 07:00N 34°13' E 135°09'0 0.0
2018-Jul-17 06:30N 34°13' E 135°09'0 0.0
2018-Jul-17 06:00N 34°13' E 135°09'0 0.0
2018-Jul-17 05:30N 34°13' E 135°09'0 0.0
2018-Jul-17 05:00N 34°13' E 135°09'0 0.0
2018-Jul-17 04:30N 34°13' E 135°09'0 0.0
2018-Jul-17 04:00N 34°13' E 135°09'4 8.7
2018-Jul-17 03:29N 34°11' E 135°04'612.7
2018-Jul-17 03:00N 34°07' E 134°59'15 3.5
2018-Jul-16 22:52N 33°57' E 134°47'612.2
2018-Jul-16 22:22N 34°01' E 134°52'412.4
2018-Jul-16 22:00N 34°04' E 134°56'612.7
2018-Jul-16 21:30N 34°08' E 135°02'612.4
2018-Jul-16 21:00N 34°13' E 135°07'2 4.0
2018-Jul-16 20:30N 34°13' E 135°09'0 0.0
2018-Jul-16 19:58N 34°13' E 135°09'0 0.0
2018-Jul-16 19:28N 34°13' E 135°09'0 0.0
2018-Jul-16 18:58N 34°13' E 135°09'0 0.0
2018-Jul-16 18:28N 34°13' E 135°09'0 0.0
2018-Jul-16 17:58N 34°13' E 135°09'0 0.0
2018-Jul-16 17:28N 34°13' E 135°09'0 0.0
2018-Jul-16 16:55N 34°13' E 135°09'0 0.0
2018-Jul-16 16:28N 34°13' E 135°09'0 0.0
2018-Jul-16 15:55N 34°13' E 135°09'0 0.0
2018-Jul-16 15:28N 34°13' E 135°09'0 0.0
2018-Jul-16 15:01N 34°13' E 135°09'0 0.0
2018-Jul-16 14:28N 34°13' E 135°09'0 0.0
2018-Jul-16 14:00N 34°13' E 135°09'0 0.0
2018-Jul-16 13:30N 34°13' E 135°09'0 0.0
2018-Jul-16 12:57N 34°13' E 135°09'0 0.0
2018-Jul-16 12:30N 34°13' E 135°09'0 0.0
2018-Jul-16 12:00N 34°13' E 135°09'0 0.0
2018-Jul-16 11:30N 34°13' E 135°09'0 0.0
2018-Jul-16 11:00N 34°13' E 135°09'0 0.0
2018-Jul-16 10:30N 34°13' E 135°09'0 0.0
2018-Jul-16 10:00N 34°13' E 135°09'0 0.0
2018-Jul-16 09:30N 34°13' E 135°09'0 0.0
2018-Jul-16 08:57N 34°13' E 135°09'0 0.0
2018-Jul-16 08:30N 34°13' E 135°09'0 0.0
2018-Jul-16 08:00N 34°13' E 135°09'0 0.0
2018-Jul-16 07:30N 34°13' E 135°09'0 0.0
2018-Jul-16 07:00N 34°13' E 135°09'0 0.0
2018-Jul-16 06:30N 34°13' E 135°09'0 0.0
2018-Jul-16 05:57N 34°13' E 135°09'0 0.0
2018-Jul-16 05:30N 34°13' E 135°09'0 0.0
2018-Jul-16 05:00N 34°13' E 135°09'0 0.0
2018-Jul-16 04:30N 34°13' E 135°09'0 0.0
2018-Jul-16 04:00N 34°13' E 135°09'0 0.0
2018-Jul-16 03:30N 34°13' E 135°09'0 0.0
2018-Jul-16 03:00N 34°13' E 135°09'0 0.0
2018-Jul-16 02:30N 34°13' E 135°09'0 0.0
2018-Jul-16 02:00N 34°13' E 135°09'0 0.0
2018-Jul-16 01:30N 34°13' E 135°09'0 0.0
2018-Jul-16 01:00N 34°13' E 135°09'0 0.0
2018-Jul-16 00:27N 34°13' E 135°09'0 0.0
2018-Jul-15 23:57N 34°13' E 135°09'0 0.0
2018-Jul-15 23:30N 34°13' E 135°09'0 0.0
2018-Jul-15 22:57N 34°13' E 135°09'0 0.0
2018-Jul-15 22:30N 34°13' E 135°09'0 0.0
2018-Jul-15 21:54N 34°13' E 135°09'0 0.0
2018-Jul-15 21:24N 34°13' E 135°09'0 0.0
2018-Jul-15 20:57N 34°13' E 135°09'0 0.0
2018-Jul-15 20:27N 34°13' E 135°09'0 0.0
2018-Jul-15 19:48N 34°13' E 135°09'0 0.0
2018-Jul-15 19:30N 34°13' E 135°09'0 0.0
2018-Jul-15 19:00N 34°13' E 135°09'0 0.0
2018-Jul-15 18:30N 34°13' E 135°09'0 0.0
2018-Jul-15 18:00N 34°13' E 135°09'0 0.0
2018-Jul-15 17:30N 34°13' E 135°09'0 0.0
2018-Jul-15 17:00N 34°13' E 135°09'0 0.0
2018-Jul-15 16:27N 34°13' E 135°09'0 0.0
2018-Jul-15 15:57N 34°13' E 135°09'0 0.0
2018-Jul-15 15:27N 34°13' E 135°09'0 0.0
2018-Jul-15 14:57N 34°13' E 135°09'0 0.0
2018-Jul-15 14:21N 34°13' E 135°09'0 0.0
2018-Jul-15 13:57N 34°13' E 135°09'0 0.0
2018-Jul-15 13:27N 34°13' E 135°09'0 0.0
2018-Jul-15 12:57N 34°13' E 135°09'0 0.0
2018-Jul-15 12:30N 34°13' E 135°09'0 0.0
2018-Jul-15 11:57N 34°13' E 135°09'0 0.0
2018-Jul-15 11:27N 34°13' E 135°09'0 0.0
2018-Jul-15 10:48N 34°13' E 135°09'0 0.0
2018-Jul-15 10:27N 34°13' E 135°09'0 0.0
2018-Jul-15 09:57N 34°13' E 135°09'0 0.0
2018-Jul-15 09:30N 34°13' E 135°09'0 0.0
2018-Jul-15 09:00N 34°13' E 135°09'0 0.0
2018-Jul-15 08:27N 34°13' E 135°09'1 1.9
2018-Jul-15 08:00N 34°13' E 135°08'611.8
2018-Jul-15 07:30N 34°14' E 135°01'611.4
2018-Jul-15 07:00N 34°20' E 134°59'815.2
2018-Jul-15 06:30N 34°25' E 135°06'714.3
2018-Jul-15 06:00N 34°29' E 135°13'612.0
2018-Jul-15 05:30N 34°33' E 135°19'5 9.3
2018-Jul-15 05:00N 34°33' E 135°24'0 0.8
2018-Jul-15 04:30N 34°33' E 135°25'1 2.3
2018-Jul-15 03:59N 34°33' E 135°26'0 0.2
2018-Jul-15 01:30N 34°33' E 135°27'0 0.0
2018-Jul-15 01:00N 34°33' E 135°27'0 0.0
2018-Jul-15 00:24N 34°33' E 135°27'0 0.0
2018-Jul-14 23:54N 34°33' E 135°27'0 0.0
2018-Jul-14 23:18N 34°33' E 135°27'0 0.0
2018-Jul-14 22:48N 34°33' E 135°27'0 0.0
2018-Jul-14 22:30N 34°33' E 135°27'0 0.0
2018-Jul-14 14:48N 34°33' E 135°27'0 0.0
2018-Jul-14 14:30N 34°33' E 135°27'0 0.0
2018-Jul-14 13:30N 34°33' E 135°27'0 0.0
2018-Jul-14 13:00N 34°33' E 135°27'0 0.0
2018-Jul-14 12:12N 34°33' E 135°27'0 0.0
2018-Jul-14 12:00N 34°33' E 135°27'0 0.0
2018-Jul-14 11:24N 34°33' E 135°27'0 0.0
2018-Jul-14 06:30N 34°33' E 135°27'0 0.4
2018-Jul-14 06:00N 34°33' E 135°27'2 4.2
2018-Jul-14 05:30N 34°33' E 135°24'1 0.5
2018-Jul-14 02:54N 34°31' E 135°24'2 2.2
2018-Jul-14 02:05N 34°33' E 135°25'0 0.0
2018-Jul-14 01:58N 34°33' E 135°25'0 0.2
2018-Jul-14 01:23N 34°33' E 135°25'1 2.7
2018-Jul-14 01:00N 34°33' E 135°24'3 5.5
2018-Jul-14 00:30N 34°34' E 135°20'510.4
2018-Jul-14 00:00N 34°31' E 135°15'5 9.7
2018-Jul-13 23:28N 34°28' E 135°10'612.2
2018-Jul-13 23:00N 34°24' E 135°05'612.6
2018-Jul-13 22:30N 34°19' E 135°00'612.4
2018-Jul-13 22:00N 34°13' E 134°59'3 6.2
2018-Jul-13 21:29N 34°11' E 135°03'611.5
2018-Jul-13 21:01N 34°13' E 135°09'0 0.1
2018-Jul-13 20:27N 34°13' E 135°09'0 0.0
2018-Jul-13 20:00N 34°13' E 135°09'0 0.0
2018-Jul-13 19:30N 34°13' E 135°09'0 0.0
2018-Jul-13 19:00N 34°13' E 135°09'0 0.0
2018-Jul-13 18:30N 34°13' E 135°09'0 0.0
2018-Jul-13 18:00N 34°13' E 135°09'0 0.0
2018-Jul-13 17:30N 34°13' E 135°09'0 0.0
2018-Jul-13 16:59N 34°13' E 135°09'0 0.0
2018-Jul-13 16:29N 34°13' E 135°09'0 0.0
2018-Jul-13 15:59N 34°13' E 135°09'0 0.0
2018-Jul-13 15:26N 34°13' E 135°09'0 0.0
2018-Jul-13 14:59N 34°13' E 135°09'0 0.0
2018-Jul-13 13:59N 34°13' E 135°09'0 0.0
2018-Jul-13 13:29N 34°13' E 135°09'0 0.0
2018-Jul-13 12:59N 34°13' E 135°09'0 0.0
2018-Jul-13 12:29N 34°13' E 135°09'0 0.0
2018-Jul-13 11:59N 34°13' E 135°09'0 0.0
2018-Jul-13 11:29N 34°13' E 135°09'  
Track history (hours):
 
Tides and Currents Weather Stations Pressure Air Temp Water Temp Dewpoint Dewpoint Depression Visibility Wind Speed Wind Dir Waves Ship Positions

Kasagimaru

Last reported at 2018-Jul-23 11:28 UTC. Time now 2018-Jul-23 11:50 UTC.
Position N 34°13' E 135°09'.

Length 42 m; draft 3.5 m.

Type: Tug. MMSI: 431300268.

Date/timePositionNaut miles runAvg speedWind from/ knotsBaromVisibWave heightAir tempDewpointWater temp
2018-Jul-23 11:28N 34°13' E 135°09'0 0.0
2018-Jul-23 10:58N 34°13' E 135°09'0 0.0
2018-Jul-23 10:22N 34°13' E 135°09'0 0.0
2018-Jul-23 09:58N 34°13' E 135°09'0 0.0
2018-Jul-23 09:28N 34°13' E 135°09'0 0.0
2018-Jul-23 08:58N 34°13' E 135°09'0 0.0
2018-Jul-23 08:28N 34°13' E 135°09'0 0.0
2018-Jul-23 07:46N 34°13' E 135°09'0 0.0
2018-Jul-23 07:25N 34°13' E 135°09'0 0.0
2018-Jul-23 06:58N 34°13' E 135°09'0 0.8
2018-Jul-23 06:31N 34°13' E 135°09'510.4
2018-Jul-23 06:00N 34°16' E 135°03'510.5
2018-Jul-23 05:30N 34°20' E 135°06'611.9
2018-Jul-23 05:00N 34°24' E 135°12'911.9
2018-Jul-23 04:16N 34°29' E 135°20'412.4
2018-Jul-23 03:59N 34°32' E 135°23'2 1.1
2018-Jul-23 02:29N 34°33' E 135°24'4 3.9
2018-Jul-23 01:33N 34°33' E 135°20'0 1.7
2018-Jul-23 01:26N 34°33' E 135°20'1 2.6
2018-Jul-23 01:00N 34°34' E 135°21'5 2.6
2018-Jul-22 23:00N 34°35' E 135°27'1 1.9
2018-Jul-22 22:30N 34°35' E 135°26'3 5.9
2018-Jul-22 22:01N 34°36' E 135°22'1 2.1
2018-Jul-22 21:28N 34°35' E 135°23'5 0.9
2018-Jul-22 16:17N 34°31' E 135°24'0 0.0
2018-Jul-22 13:38N 34°31' E 135°24'0 0.0
2018-Jul-22 10:41N 34°31' E 135°24'0 0.0
2018-Jul-22 10:27N 34°31' E 135°24'0 0.1
2018-Jul-22 10:00N 34°31' E 135°24'3 6.2
2018-Jul-22 09:30N 34°33' E 135°26'0 0.0
2018-Jul-22 09:00N 34°33' E 135°26'0 0.1
2018-Jul-22 08:30N 34°33' E 135°26'0 0.2
2018-Jul-22 08:00N 34°33' E 135°26'1 2.8
2018-Jul-22 07:30N 34°33' E 135°24'3 6.4
2018-Jul-22 07:00N 34°33' E 135°20'0 0.5
2018-Jul-22 06:30N 34°34' E 135°21'5 9.2
2018-Jul-22 06:00N 34°33' E 135°26'0 1.0
2018-Jul-22 05:30N 34°33' E 135°27'0 0.0
2018-Jul-22 05:00N 34°33' E 135°27'0 0.0
2018-Jul-22 04:28N 34°33' E 135°27'0 0.0
2018-Jul-22 03:57N 34°33' E 135°27'0 0.0
2018-Jul-22 03:30N 34°33' E 135°27'0 0.0
2018-Jul-22 02:58N 34°33' E 135°27'2 4.0
2018-Jul-22 02:30N 34°33' E 135°24'0 0.4
2018-Jul-22 01:35N 34°34' E 135°24'0 0.8
2018-Jul-22 01:28N 34°34' E 135°24'2 0.3
2018-Jul-21 18:07N 34°33' E 135°27'0 0.0
2018-Jul-21 17:43N 34°33' E 135°27'0 0.0
2018-Jul-21 17:19N 34°33' E 135°27'0 0.0
2018-Jul-21 14:37N 34°33' E 135°27'0 0.0
2018-Jul-21 11:26N 34°33' E 135°27'3 7.7
2018-Jul-21 11:00N 34°35' E 135°24'2 4.3
2018-Jul-21 10:30N 34°37' E 135°26'2 3.9
2018-Jul-21 10:00N 34°38' E 135°24'1 1.3
2018-Jul-21 09:30N 34°38' E 135°24'0 0.5
2018-Jul-21 09:00N 34°38' E 135°25'0 0.6
2018-Jul-21 08:30N 34°38' E 135°24'2 3.9
2018-Jul-21 08:00N 34°38' E 135°27'0 0.5
2018-Jul-21 07:30N 34°38' E 135°27'0 0.0
2018-Jul-21 06:59N 34°38' E 135°27'0 0.0
2018-Jul-21 06:30N 34°38' E 135°27'0 0.0
2018-Jul-21 05:59N 34°38' E 135°27'0 0.0
2018-Jul-21 05:28N 34°38' E 135°27'0 0.0
2018-Jul-21 05:00N 34°38' E 135°27'0 0.0
2018-Jul-21 04:30N 34°38' E 135°27'5 9.3
2018-Jul-21 04:00N 34°37' E 135°21'612.3
2018-Jul-21 03:30N 34°35' E 135°14'612.2
2018-Jul-21 03:00N 34°34' E 135°07'812.5
2018-Jul-21 02:24N 34°37' E 134°59'3 8.1
2018-Jul-21 02:00N 34°35' E 134°55'3 5.5
2018-Jul-21 01:30N 34°37' E 134°53'5 0.3
2018-Jul-20 06:15N 34°40' E 134°48'613.3
2018-Jul-20 05:48N 34°37' E 134°54'514.1
2018-Jul-20 05:28N 34°38' E 134°60'613.0
2018-Jul-20 05:00N 34°34' E 135°05'713.4
2018-Jul-20 04:30N 34°27' E 135°03'713.6
2018-Jul-20 04:01N 34°21' E 135°01'612.5
2018-Jul-20 03:30N 34°15' E 134°58'713.9
2018-Jul-20 03:00N 34°22' E 135°00'815.4
2018-Jul-20 02:30N 34°27' E 135°08'714.1
2018-Jul-20 01:59N 34°31' E 135°15'612.2
2018-Jul-20 01:30N 34°33' E 135°22'2 3.9
2018-Jul-20 00:58N 34°34' E 135°24'0 0.1
2018-Jul-20 00:16N 34°34' E 135°24'2 0.8
2018-Jul-19 21:35N 34°33' E 135°27'0 0.0
2018-Jul-19 21:23N 34°33' E 135°27'0 0.0
2018-Jul-19 07:53N 34°33' E 135°27'0 0.0
2018-Jul-19 02:02N 34°33' E 135°27'0 1.6
2018-Jul-19 02:00N 34°33' E 135°27'511.0
2018-Jul-19 01:30N 34°34' E 135°20'612.5
2018-Jul-19 01:00N 34°34' E 135°12'613.1
2018-Jul-19 00:30N 34°35' E 135°04'713.1
2018-Jul-19 00:00N 34°37' E 134°57'713.2
2018-Jul-18 23:30N 34°40' E 134°49'7 1.7
2018-Jul-18 19:43N 34°40' E 134°42'513.7
2018-Jul-18 19:23N 34°36' E 134°42'410.4
2018-Jul-18 19:00N 34°34' E 134°47'1013.9
2018-Jul-18 18:18N 34°37' E 134°58'311.1
2018-Jul-18 18:00N 34°37' E 135°02'4 8.2
2018-Jul-18 17:30N 34°35' E 135°06'3 6.8
2018-Jul-18 17:00N 34°33' E 135°09'4 8.3
2018-Jul-18 16:29N 34°29' E 135°06'612.8
2018-Jul-18 16:00N 34°23' E 135°03'612.7
2018-Jul-18 15:30N 34°18' E 134°59'611.9
2018-Jul-18 14:59N 34°12' E 135°00'2 4.5
2018-Jul-18 14:31N 34°12' E 135°03'6 5.3
2018-Jul-18 13:27N 34°13' E 135°09'0 0.0
2018-Jul-18 12:57N 34°13' E 135°09'0 0.0
2018-Jul-18 12:30N 34°13' E 135°09'0 0.0
2018-Jul-18 12:00N 34°13' E 135°09'0 0.0
2018-Jul-18 11:30N 34°13' E 135°09'0 0.0
2018-Jul-18 10:30N 34°13' E 135°09'0 0.0
2018-Jul-18 10:00N 34°13' E 135°09'0 0.0
2018-Jul-18 09:27N 34°13' E 135°09'0 0.0
2018-Jul-18 09:00N 34°13' E 135°09'0 0.0
2018-Jul-18 08:30N 34°13' E 135°09'0 0.0
2018-Jul-18 07:57N 34°13' E 135°09'0 0.0
2018-Jul-18 07:30N 34°13' E 135°09'0 0.0
2018-Jul-18 06:54N 34°13' E 135°09'0 0.0
2018-Jul-18 06:27N 34°13' E 135°09'0 0.0
2018-Jul-18 05:57N 34°13' E 135°09'0 0.0
2018-Jul-18 05:30N 34°13' E 135°09'0 0.0
2018-Jul-18 04:57N 34°13' E 135°09'0 0.0
2018-Jul-18 04:27N 34°13' E 135°09'0 0.0
2018-Jul-18 03:54N 34°13' E 135°09'0 0.0
2018-Jul-18 03:27N 34°13' E 135°09'0 0.0
2018-Jul-18 03:00N 34°13' E 135°09'0 0.0
2018-Jul-18 02:30N 34°13' E 135°09'0 0.0
2018-Jul-18 02:00N 34°13' E 135°09'0 0.0
2018-Jul-18 01:30N 34°13' E 135°09'0 0.0
2018-Jul-18 00:57N 34°13' E 135°09'0 0.0
2018-Jul-18 00:30N 34°13' E 135°09'0 0.0
2018-Jul-18 00:00N 34°13' E 135°09'0 0.0
2018-Jul-17 23:30N 34°13' E 135°09'0 0.0
2018-Jul-17 23:00N 34°13' E 135°09'0 0.0
2018-Jul-17 22:21N 34°13' E 135°09'0 0.0
2018-Jul-17 21:57N 34°13' E 135°09'0 0.0
2018-Jul-17 21:30N 34°13' E 135°09'0 0.0
2018-Jul-17 21:00N 34°13' E 135°09'0 0.0
2018-Jul-17 20:30N 34°13' E 135°09'0 0.0
2018-Jul-17 19:57N 34°13' E 135°09'0 0.0
2018-Jul-17 19:30N 34°13' E 135°09'0 0.0
2018-Jul-17 19:00N 34°13' E 135°09'0 0.0
2018-Jul-17 18:18N 34°13' E 135°09'0 0.0
2018-Jul-17 18:00N 34°13' E 135°09'0 0.0
2018-Jul-17 17:30N 34°13' E 135°09'0 0.0
2018-Jul-17 16:51N 34°13' E 135°09'0 0.0
2018-Jul-17 16:30N 34°13' E 135°09'0 0.0
2018-Jul-17 16:00N 34°13' E 135°09'0 0.0
2018-Jul-17 15:27N 34°13' E 135°09'0 0.0
2018-Jul-17 15:00N 34°13' E 135°09'0 0.0
2018-Jul-17 14:30N 34°13' E 135°09'0 0.0
2018-Jul-17 13:57N 34°13' E 135°09'0 0.0
2018-Jul-17 13:30N 34°13' E 135°09'0 0.0
2018-Jul-17 12:57N 34°13' E 135°09'0 0.0
2018-Jul-17 12:27N 34°13' E 135°09'0 0.0
2018-Jul-17 12:00N 34°13' E 135°09'0 0.0
2018-Jul-17 11:27N 34°13' E 135°09'0 0.0
2018-Jul-17 11:00N 34°13' E 135°09'0 0.0
2018-Jul-17 10:30N 34°13' E 135°09'0 0.0
2018-Jul-17 10:00N 34°13' E 135°09'0 0.0
2018-Jul-17 09:30N 34°13' E 135°09'0 0.0
2018-Jul-17 09:00N 34°13' E 135°09'0 0.0
2018-Jul-17 08:30N 34°13' E 135°09'0 0.0
2018-Jul-17 08:00N 34°13' E 135°09'0 0.0
2018-Jul-17 07:30N 34°13' E 135°09'0 0.0
2018-Jul-17 07:00N 34°13' E 135°09'0 0.0
2018-Jul-17 06:30N 34°13' E 135°09'0 0.0
2018-Jul-17 06:00N 34°13' E 135°09'0 0.0
2018-Jul-17 05:30N 34°13' E 135°09'0 0.0
2018-Jul-17 05:00N 34°13' E 135°09'0 0.0
2018-Jul-17 04:30N 34°13' E 135°09'0 0.0
2018-Jul-17 04:00N 34°13' E 135°09'4 8.7
2018-Jul-17 03:29N 34°11' E 135°04'612.7
2018-Jul-17 03:00N 34°07' E 134°59'15 3.5
2018-Jul-16 22:52N 33°57' E 134°47'612.2
2018-Jul-16 22:22N 34°01' E 134°52'412.4
2018-Jul-16 22:00N 34°04' E 134°56'612.7
2018-Jul-16 21:30N 34°08' E 135°02'612.4
2018-Jul-16 21:00N 34°13' E 135°07'2 4.0
2018-Jul-16 20:30N 34°13' E 135°09'0 0.0
2018-Jul-16 19:58N 34°13' E 135°09'0 0.0
2018-Jul-16 19:28N 34°13' E 135°09'0 0.0
2018-Jul-16 18:58N 34°13' E 135°09'0 0.0
2018-Jul-16 18:28N 34°13' E 135°09'0 0.0
2018-Jul-16 17:58N 34°13' E 135°09'0 0.0
2018-Jul-16 17:28N 34°13' E 135°09'0 0.0
2018-Jul-16 16:55N 34°13' E 135°09'0 0.0
2018-Jul-16 16:28N 34°13' E 135°09'0 0.0
2018-Jul-16 15:55N 34°13' E 135°09'0 0.0
2018-Jul-16 15:28N 34°13' E 135°09'0 0.0
2018-Jul-16 15:01N 34°13' E 135°09'0 0.0
2018-Jul-16 14:28N 34°13' E 135°09'0 0.0
2018-Jul-16 14:00N 34°13' E 135°09'0 0.0
2018-Jul-16 13:30N 34°13' E 135°09'0 0.0
2018-Jul-16 12:57N 34°13' E 135°09'0 0.0
2018-Jul-16 12:30N 34°13' E 135°09'0 0.0
2018-Jul-16 12:00N 34°13' E 135°09'0 0.0
2018-Jul-16 11:30N 34°13' E 135°09'0 0.0
2018-Jul-16 11:00N 34°13' E 135°09'0 0.0
2018-Jul-16 10:30N 34°13' E 135°09'0 0.0
2018-Jul-16 10:00N 34°13' E 135°09'0 0.0
2018-Jul-16 09:30N 34°13' E 135°09'0 0.0
2018-Jul-16 08:57N 34°13' E 135°09'0 0.0
2018-Jul-16 08:30N 34°13' E 135°09'0 0.0
2018-Jul-16 08:00N 34°13' E 135°09'0 0.0
2018-Jul-16 07:30N 34°13' E 135°09'0 0.0
2018-Jul-16 07:00N 34°13' E 135°09'0 0.0
2018-Jul-16 06:30N 34°13' E 135°09'0 0.0
2018-Jul-16 05:57N 34°13' E 135°09'0 0.0
2018-Jul-16 05:30N 34°13' E 135°09'0 0.0
2018-Jul-16 05:00N 34°13' E 135°09'0 0.0
2018-Jul-16 04:30N 34°13' E 135°09'0 0.0
2018-Jul-16 04:00N 34°13' E 135°09'0 0.0
2018-Jul-16 03:30N 34°13' E 135°09'0 0.0
2018-Jul-16 03:00N 34°13' E 135°09'0 0.0
2018-Jul-16 02:30N 34°13' E 135°09'0 0.0
2018-Jul-16 02:00N 34°13' E 135°09'0 0.0
2018-Jul-16 01:30N 34°13' E 135°09'0 0.0
2018-Jul-16 01:00N 34°13' E 135°09'0 0.0
2018-Jul-16 00:27N 34°13' E 135°09'0 0.0
2018-Jul-15 23:57N 34°13' E 135°09'0 0.0
2018-Jul-15 23:30N 34°13' E 135°09'0 0.0
2018-Jul-15 22:57N 34°13' E 135°09'0 0.0
2018-Jul-15 22:30N 34°13' E 135°09'0 0.0
2018-Jul-15 21:54N 34°13' E 135°09'0 0.0
2018-Jul-15 21:24N 34°13' E 135°09'0 0.0
2018-Jul-15 20:57N 34°13' E 135°09'0 0.0
2018-Jul-15 20:27N 34°13' E 135°09'0 0.0
2018-Jul-15 19:48N 34°13' E 135°09'0 0.0
2018-Jul-15 19:30N 34°13' E 135°09'0 0.0
2018-Jul-15 19:00N 34°13' E 135°09'0 0.0
2018-Jul-15 18:30N 34°13' E 135°09'0 0.0
2018-Jul-15 18:00N 34°13' E 135°09'0 0.0
2018-Jul-15 17:30N 34°13' E 135°09'0 0.0
2018-Jul-15 17:00N 34°13' E 135°09'0 0.0
2018-Jul-15 16:27N 34°13' E 135°09'0 0.0
2018-Jul-15 15:57N 34°13' E 135°09'0 0.0
2018-Jul-15 15:27N 34°13' E 135°09'0 0.0
2018-Jul-15 14:57N 34°13' E 135°09'0 0.0
2018-Jul-15 14:21N 34°13' E 135°09'0 0.0
2018-Jul-15 13:57N 34°13' E 135°09'0 0.0
2018-Jul-15 13:27N 34°13' E 135°09'0 0.0
2018-Jul-15 12:57N 34°13' E 135°09'0 0.0
2018-Jul-15 12:30N 34°13' E 135°09'0 0.0
2018-Jul-15 11:57N 34°13' E 135°09'0 0.0
2018-Jul-15 11:27N 34°13' E 135°09'0 0.0
2018-Jul-15 10:48N 34°13' E 135°09'0 0.0
2018-Jul-15 10:27N 34°13' E 135°09'0 0.0
2018-Jul-15 09:57N 34°13' E 135°09'0 0.0
2018-Jul-15 09:30N 34°13' E 135°09'0 0.0
2018-Jul-15 09:00N 34°13' E 135°09'0 0.0
2018-Jul-15 08:27N 34°13' E 135°09'1 1.9
2018-Jul-15 08:00N 34°13' E 135°08'611.8
2018-Jul-15 07:30N 34°14' E 135°01'611.4
2018-Jul-15 07:00N 34°20' E 134°59'815.2
2018-Jul-15 06:30N 34°25' E 135°06'714.3
2018-Jul-15 06:00N 34°29' E 135°13'612.0
2018-Jul-15 05:30N 34°33' E 135°19'5 9.3
2018-Jul-15 05:00N 34°33' E 135°24'0 0.8
2018-Jul-15 04:30N 34°33' E 135°25'1 2.3
2018-Jul-15 03:59N 34°33' E 135°26'0 0.2
2018-Jul-15 01:30N 34°33' E 135°27'0 0.0
2018-Jul-15 01:00N 34°33' E 135°27'0 0.0
2018-Jul-15 00:24N 34°33' E 135°27'0 0.0
2018-Jul-14 23:54N 34°33' E 135°27'0 0.0
2018-Jul-14 23:18N 34°33' E 135°27'0 0.0
2018-Jul-14 22:48N 34°33' E 135°27'0 0.0
2018-Jul-14 22:30N 34°33' E 135°27'0 0.0
2018-Jul-14 14:48N 34°33' E 135°27'0 0.0
2018-Jul-14 14:30N 34°33' E 135°27'0 0.0
2018-Jul-14 13:30N 34°33' E 135°27'0 0.0
2018-Jul-14 13:00N 34°33' E 135°27'0 0.0
2018-Jul-14 12:12N 34°33' E 135°27'0 0.0
2018-Jul-14 12:00N 34°33' E 135°27'0 0.0
2018-Jul-14 11:24N 34°33' E 135°27'0 0.0
2018-Jul-14 06:30N 34°33' E 135°27'0 0.4
2018-Jul-14 06:00N 34°33' E 135°27'2 4.2
2018-Jul-14 05:30N 34°33' E 135°24'1 0.5
2018-Jul-14 02:54N 34°31' E 135°24'2 2.2
2018-Jul-14 02:05N 34°33' E 135°25'0 0.0
2018-Jul-14 01:58N 34°33' E 135°25'0 0.2
2018-Jul-14 01:23N 34°33' E 135°25'1 2.7
2018-Jul-14 01:00N 34°33' E 135°24'3 5.5
2018-Jul-14 00:30N 34°34' E 135°20'510.4
2018-Jul-14 00:00N 34°31' E 135°15'5 9.7
2018-Jul-13 23:28N 34°28' E 135°10'612.2
2018-Jul-13 23:00N 34°24' E 135°05'612.6
2018-Jul-13 22:30N 34°19' E 135°00'612.4
2018-Jul-13 22:00N 34°13' E 134°59'3 6.2
2018-Jul-13 21:29N 34°11' E 135°03'611.5
2018-Jul-13 21:01N 34°13' E 135°09'0 0.1
2018-Jul-13 20:27N 34°13' E 135°09'0 0.0
2018-Jul-13 20:00N 34°13' E 135°09'0 0.0
2018-Jul-13 19:30N 34°13' E 135°09'0 0.0
2018-Jul-13 19:00N 34°13' E 135°09'0 0.0
2018-Jul-13 18:30N 34°13' E 135°09'0 0.0
2018-Jul-13 18:00N 34°13' E 135°09'0 0.0
2018-Jul-13 17:30N 34°13' E 135°09'0 0.0
2018-Jul-13 16:59N 34°13' E 135°09'0 0.0
2018-Jul-13 16:29N 34°13' E 135°09'0 0.0
2018-Jul-13 15:59N 34°13' E 135°09'0 0.0
2018-Jul-13 15:26N 34°13' E 135°09'0 0.0
2018-Jul-13 14:59N 34°13' E 135°09'0 0.0
2018-Jul-13 13:59N 34°13' E 135°09'0 0.0
2018-Jul-13 13:29N 34°13' E 135°09'0 0.0
2018-Jul-13 12:59N 34°13' E 135°09'0 0.0
2018-Jul-13 12:29N 34°13' E 135°09'0 0.0
2018-Jul-13 11:59N 34°13' E 135°09'0 0.0
2018-Jul-13 11:29N 34°13' E 135°09'  

Dump ship's entire track history